Time;durP1;ratioP1;P1;durP2;ratioP2;P2;SDS_P1;SDS_P2;PMS_P1;PMS_P2;Temp;Humidity;BMP_temperature;BMP_pressure;BME280_temperature;BME280_humidity;BME280_pressure;Samples;Min_cycle;Max_cycle;Signal;HPM_P1;HPM_P2
2022/01/23 00:01:06;;;;;;;42.03;26.93;;;5.60;99.90;;;;;;4917457;29;20227;-80
2022/01/23 00:03:32;;;;;;;38.77;27.47;;;5.50;99.90;;;;;;4915288;29;20172;-79
2022/01/23 00:05:58;;;;;;;37.03;26.13;;;5.60;99.90;;;;;;4916314;29;20183;-80
2022/01/23 00:08:24;;;;;;;35.80;26.33;;;5.50;99.90;;;;;;4914833;29;20228;-80
2022/01/23 00:10:52;;;;;;;38.47;26.30;;;5.50;99.90;;;;;;4916023;29;20169;-79
2022/01/23 00:13:35;;;;;;;34.90;24.93;;;5.50;99.90;;;;;;4914908;29;20234;-79
2022/01/23 00:18:45;;;;;;;30.83;21.77;;;5.60;99.90;;;;;;4916151;28;20261;-79
2022/01/23 00:21:10;;;;;;;33.90;22.33;;;5.50;99.90;;;;;;4916630;28;20176;-80
2022/01/23 00:31:51;;;;;;;29.27;17.90;;;5.50;99.90;;;;;;4954944;29;20214;-80
2022/01/23 00:34:17;;;;;;;29.07;19.10;;;5.50;99.90;;;;;;4924344;29;20188;-81
2022/01/23 00:36:43;;;;;;;31.37;19.73;;;5.50;99.90;;;;;;4916475;29;20272;-79
2022/01/23 00:39:09;;;;;;;30.77;20.73;;;5.50;99.90;;;;;;4916441;29;20193;-79
2022/01/23 00:41:34;;;;;;;34.97;21.67;;;5.50;99.90;;;;;;4915980;29;20546;-79
2022/01/23 00:44:01;;;;;;;34.50;22.30;;;5.50;99.90;;;;;;4915005;29;20184;-80
2022/01/23 00:46:38;;;;;;;37.03;22.97;;;5.50;99.90;;;;;;4916846;29;20176;-79
2022/01/23 00:51:35;;;;;;;34.67;23.57;;;5.50;99.90;;;;;;4916225;29;20177;-79
2022/01/23 00:54:03;;;;;;;34.50;22.33;;;5.50;99.90;;;;;;4916891;29;20655;-80
2022/01/23 00:56:28;;;;;;;29.93;20.80;;;5.40;99.90;;;;;;4914612;29;20199;-79
2022/01/23 00:58:54;;;;;;;33.77;21.57;;;5.50;99.90;;;;;;4916170;29;20685;-79
2022/01/23 01:01:20;;;;;;;37.37;20.53;;;5.50;99.90;;;;;;4916022;29;20202;-79
2022/01/23 01:03:47;;;;;;;32.43;21.73;;;5.50;99.90;;;;;;4903464;29;20569;-79
2022/01/23 01:06:13;;;;;;;31.63;21.60;;;5.50;99.90;;;;;;4911688;29;20181;-79
2022/01/23 01:08:40;;;;;;;33.07;22.50;;;5.50;99.90;;;;;;4911864;29;20789;-80
2022/01/23 01:11:49;;;;;;;37.23;22.67;;;5.50;99.90;;;;;;4898034;29;20677;-80
2022/01/23 01:16:56;;;;;;;41.10;26.03;;;5.40;99.90;;;;;;4917914;29;20211;-80
2022/01/23 01:35:27;;;;;;;35.40;24.03;;;5.50;99.90;;;;;;5057650;28;20168;-78
2022/01/23 01:37:53;;;;;;;39.20;25.30;;;5.50;99.90;;;;;;5039784;28;20199;-78
2022/01/23 01:40:20;;;;;;;40.00;27.83;;;5.50;99.90;;;;;;5038745;28;20204;-78
2022/01/23 01:42:46;;;;;;;39.33;27.67;;;5.50;99.90;;;;;;5057049;28;20167;-78
2022/01/23 01:45:12;;;;;;;42.80;29.67;;;5.40;99.90;;;;;;5057656;28;20170;-78
2022/01/23 01:47:46;;;;;;;41.70;30.00;;;5.40;99.90;;;;;;5039054;28;20176;-78
2022/01/23 01:50:11;;;;;;;47.27;28.87;;;5.40;99.90;;;;;;5056944;28;20290;-77
2022/01/23 01:52:37;;;;;;;44.70;28.70;;;5.40;99.90;;;;;;5039156;28;20199;-78
2022/01/23 01:55:06;;;;;;;46.83;28.93;;;5.50;99.90;;;;;;5057425;28;20172;-77
2022/01/23 01:57:39;;;;;;;41.43;28.57;;;5.40;99.90;;;;;;5038444;28;20228;-78
2022/01/23 02:02:57;;;;;;;47.47;28.97;;;5.40;99.90;;;;;;5057401;28;20172;-77
2022/01/23 02:08:24;;;;;;;39.70;27.83;;;5.40;99.90;;;;;;5057360;28;20633;-78
2022/01/23 02:10:55;;;;;;;47.43;30.00;;;5.40;99.90;;;;;;5019410;28;20196;-78
2022/01/23 02:13:30;;;;;;;41.20;27.43;;;5.40;99.90;;;;;;5037395;28;20211;-78
2022/01/23 02:22:24;;;;;;;40.63;27.57;;;5.40;99.90;;;;;;5053632;28;20207;-78
2022/01/23 02:24:21;;;;;;;45.57;27.10;;;5.40;99.90;;;;;;5056948;28;20178;-77
2022/01/23 02:54:24;;;;;;;42.17;28.57;;;5.30;99.90;;;;;;5056271;28;20175;-76
2022/01/23 02:56:51;;;;;;;48.77;29.33;;;5.30;99.90;;;;;;5055366;28;20195;-77
2022/01/23 02:59:32;;;;;;;41.80;28.30;;;5.30;99.90;;;;;;5055692;28;20191;-78
2022/01/23 03:02:36;;;;;;;44.13;29.70;;;5.30;99.90;;;;;;5056059;28;20152;-78
2022/01/23 03:04:52;;;;;;;46.37;28.37;;;5.30;99.90;;;;;;5052041;28;20234;-77
2022/01/23 03:07:37;;;;;;;41.80;28.50;;;5.30;99.90;;;;;;5054961;28;20172;-78
2022/01/23 03:10:07;;;;;;;42.33;27.03;;;5.30;99.90;;;;;;5055751;28;20234;-77
2022/01/23 03:28:38;;;;;;;41.27;27.43;;;5.30;99.90;;;;;;5055089;28;20677;-78
2022/01/23 03:33:31;;;;;;;40.20;27.47;;;5.30;99.90;;;;;;5055424;28;20251;-77
2022/01/23 03:35:57;;;;;;;43.50;29.93;;;5.30;99.90;;;;;;5054735;28;20175;-78
2022/01/23 03:38:22;;;;;;;49.53;29.50;;;5.30;99.90;;;;;;5054814;28;20200;-78
2022/01/23 03:40:48;;;;;;;43.40;28.10;;;5.30;99.90;;;;;;5037592;28;20211;-77
2022/01/23 03:43:15;;;;;;;38.10;26.07;;;5.30;99.90;;;;;;5055144;28;20214;-78
2022/01/23 03:45:58;;;;;;;37.67;25.77;;;5.30;99.90;;;;;;5054022;28;20182;-76
2022/01/23 03:50:51;;;;;;;37.53;26.47;;;5.30;99.90;;;;;;5055213;28;20221;-77
2022/01/23 03:53:16;;;;;;;36.60;25.37;;;5.30;99.90;;;;;;5055551;28;20164;-78
2022/01/23 03:55:43;;;;;;;37.40;25.67;;;5.30;99.90;;;;;;5054394;28;20175;-78
2022/01/23 03:58:09;;;;;;;39.03;25.90;;;5.30;99.90;;;;;;5054425;28;20171;-78
2022/01/23 04:00:35;;;;;;;37.30;26.03;;;5.30;99.90;;;;;;5036779;28;20537;-78
2022/01/23 04:03:01;;;;;;;38.43;25.00;;;5.30;99.90;;;;;;5036657;28;20180;-76
2022/01/23 04:05:26;;;;;;;42.37;25.83;;;5.30;99.90;;;;;;5035499;28;20702;-77
2022/01/23 04:07:52;;;;;;;39.77;26.23;;;5.30;99.90;;;;;;5036640;28;20270;-78
2022/01/23 04:10:20;;;;;;;40.57;26.30;;;5.30;99.90;;;;;;5036601;28;20207;-78
2022/01/23 04:15:28;;;;;;;38.83;26.50;;;5.30;99.90;;;;;;5054736;28;20171;-78
2022/01/23 04:33:50;;;;;;;39.37;26.80;;;5.20;99.90;;;;;;5054177;28;20229;-78
2022/01/23 05:00:46;;;;;;;41.40;27.23;;;5.20;99.90;;;;;;5059024;28;20189;-78
2022/01/23 05:05:37;;;;;;;40.73;26.97;;;5.20;99.90;;;;;;5057776;28;20186;-77
2022/01/23 05:08:06;;;;;;;39.73;27.07;;;5.20;99.90;;;;;;5057908;28;20170;-77
2022/01/23 05:10:32;;;;;;;40.03;25.43;;;5.20;99.90;;;;;;5040148;28;20179;-77
2022/01/23 05:12:58;;;;;;;37.53;25.70;;;5.20;99.90;;;;;;5058115;28;20206;-78
2022/01/23 05:15:24;;;;;;;47.30;26.43;;;5.20;99.90;;;;;;5039506;28;20196;-78
2022/01/23 05:17:49;;;;;;;38.20;25.00;;;5.20;99.90;;;;;;5057905;28;20182;-78
2022/01/23 05:20:17;;;;;;;39.17;26.27;;;5.20;99.90;;;;;;5039119;28;20219;-76
2022/01/23 05:22:48;;;;;;;43.23;27.67;;;5.10;99.90;;;;;;5039502;28;20179;-78
2022/01/23 05:25:20;;;;;;;45.13;28.37;;;5.20;99.90;;;;;;5057466;28;20186;-78
2022/01/23 05:27:50;;;;;;;42.27;26.97;;;5.10;99.90;;;;;;5039499;28;20175;-78
2022/01/23 05:30:16;;;;;;;47.77;28.47;;;5.20;99.90;;;;;;5058011;28;20195;-78
2022/01/23 05:32:41;;;;;;;43.80;28.43;;;5.10;99.90;;;;;;5057772;28;20203;-78
2022/01/23 05:35:08;;;;;;;41.80;26.57;;;5.10;99.90;;;;;;5039550;28;20267;-78
2022/01/23 05:37:36;;;;;;;40.37;25.90;;;5.10;99.90;;;;;;5039989;28;20172;-78
2022/01/23 05:40:03;;;;;;;37.93;24.17;;;5.20;99.90;;;;;;5057511;28;20215;-78
2022/01/23 05:42:29;;;;;;;38.13;24.57;;;5.10;99.90;;;;;;5058486;28;20175;-77
2022/01/23 05:44:54;;;;;;;37.17;25.00;;;5.20;99.90;;;;;;5039427;28;20240;-78
2022/01/23 05:47:20;;;;;;;40.73;26.33;;;5.10;99.90;;;;;;5039490;28;20187;-78
2022/01/23 05:49:45;;;;;;;39.97;26.80;;;5.10;99.90;;;;;;5057300;28;20203;-77
2022/01/23 05:52:11;;;;;;;39.57;26.30;;;5.20;99.90;;;;;;5057641;28;20167;-78
2022/01/23 05:54:36;;;;;;;39.20;26.90;;;5.10;99.90;;;;;;5039166;28;20199;-77
2022/01/23 05:57:03;;;;;;;40.87;25.83;;;5.10;99.90;;;;;;5039725;28;20180;-78
2022/01/23 05:59:28;;;;;;;40.27;26.13;;;5.10;99.90;;;;;;5039085;28;20195;-78
2022/01/23 06:01:55;;;;;;;38.63;24.60;;;5.20;99.90;;;;;;5057397;28;20722;-78
2022/01/23 06:04:24;;;;;;;40.27;24.03;;;5.10;99.90;;;;;;5038776;28;20211;-78
2022/01/23 06:06:51;;;;;;;46.77;26.17;;;5.10;99.90;;;;;;5056864;28;20203;-77
2022/01/23 06:09:19;;;;;;;42.17;25.10;;;5.10;99.90;;;;;;5056355;28;20203;-78
2022/01/23 06:11:44;;;;;;;45.37;28.03;;;5.10;99.90;;;;;;5057058;28;20179;-78
2022/01/23 06:14:10;;;;;;;44.83;26.57;;;5.10;99.90;;;;;;5041024;28;20183;-78
2022/01/23 06:16:37;;;;;;;44.87;27.80;;;5.10;99.90;;;;;;5065531;28;20641;-78
2022/01/23 06:19:03;;;;;;;41.03;25.70;;;5.10;99.90;;;;;;5063437;28;20227;-77
2022/01/23 06:21:28;;;;;;;40.17;26.53;;;5.10;99.90;;;;;;5055325;28;20186;-77
2022/01/23 06:24:05;;;;;;;40.47;25.13;;;5.10;99.90;;;;;;5038507;28;20176;-78
2022/01/23 06:26:38;;;;;;;41.73;27.83;;;5.10;99.90;;;;;;5057621;28;20166;-77
2022/01/23 06:29:04;;;;;;;39.27;25.30;;;5.10;99.90;;;;;;5057253;28;20207;-78
2022/01/23 06:31:31;;;;;;;40.20;26.27;;;5.10;99.90;;;;;;5039461;28;20176;-78
2022/01/23 06:33:58;;;;;;;44.27;26.70;;;5.10;99.90;;;;;;5056919;28;20250;-79
2022/01/23 06:36:23;;;;;;;42.83;28.30;;;5.10;99.90;;;;;;5057150;28;20172;-78
2022/01/23 06:38:49;;;;;;;42.30;28.00;;;5.10;99.90;;;;;;5057403;28;20660;-79
2022/01/23 06:41:15;;;;;;;41.13;26.80;;;5.10;99.90;;;;;;5057353;28;20187;-78
2022/01/23 06:43:40;;;;;;;43.83;27.50;;;5.10;99.90;;;;;;5056822;28;20206;-78
2022/01/23 06:46:06;;;;;;;42.70;25.73;;;5.10;99.90;;;;;;5037623;28;20183;-78
2022/01/23 06:48:31;;;;;;;41.23;26.57;;;5.10;99.90;;;;;;5056752;28;20634;-78
2022/01/23 06:50:57;;;;;;;46.63;29.00;;;5.10;99.90;;;;;;5057706;28;20599;-78
2022/01/23 06:53:22;;;;;;;48.60;30.60;;;5.10;99.90;;;;;;5057104;28;20698;-78
2022/01/23 06:55:48;;;;;;;50.23;32.00;;;5.10;99.90;;;;;;5056507;28;20191;-78
2022/01/23 06:58:13;;;;;;;49.47;31.03;;;5.10;99.90;;;;;;5038898;28;20167;-78
2022/01/23 07:00:39;;;;;;;50.87;31.70;;;5.10;99.90;;;;;;5039013;28;20233;-78
2022/01/23 07:03:04;;;;;;;51.90;30.77;;;5.10;99.90;;;;;;5057374;28;20218;-78
2022/01/23 07:05:30;;;;;;;48.63;32.10;;;5.10;99.90;;;;;;5065956;28;20238;-76
2022/01/23 07:07:55;;;;;;;53.20;32.57;;;5.10;99.90;;;;;;5068294;28;20196;-78
2022/01/23 07:10:21;;;;;;;49.70;32.47;;;5.10;99.90;;;;;;5063084;28;20283;-78
2022/01/23 07:12:47;;;;;;;57.17;31.80;;;5.20;99.90;;;;;;5056373;28;20171;-78
2022/01/23 07:15:13;;;;;;;48.47;31.20;;;5.10;99.90;;;;;;5056267;28;20724;-78
2022/01/23 07:17:40;;;;;;;58.27;32.20;;;5.10;99.90;;;;;;5036524;28;20174;-78
2022/01/23 07:20:06;;;;;;;49.50;30.17;;;5.10;99.90;;;;;;5039519;28;20588;-78
2022/01/23 07:22:32;;;;;;;56.97;32.73;;;5.10;99.90;;;;;;5038243;28;20176;-78
2022/01/23 07:25:01;;;;;;;51.30;31.73;;;5.10;99.90;;;;;;5038133;28;20186;-78
2022/01/23 07:27:29;;;;;;;50.80;32.00;;;5.10;99.90;;;;;;5038315;28;20179;-78
2022/01/23 07:29:54;;;;;;;49.27;29.77;;;5.10;99.90;;;;;;5040494;28;20629;-78
2022/01/23 07:32:20;;;;;;;47.93;29.10;;;5.10;99.90;;;;;;5037806;28;20167;-80
2022/01/23 07:34:46;;;;;;;48.57;28.90;;;5.10;99.90;;;;;;5055095;28;20582;-78
2022/01/23 07:37:12;;;;;;;50.07;29.80;;;5.10;99.90;;;;;;5055581;28;20171;-77
2022/01/23 07:39:39;;;;;;;47.23;30.00;;;5.10;99.90;;;;;;5054865;28;20736;-78
2022/01/23 07:42:05;;;;;;;46.17;28.10;;;5.10;99.90;;;;;;5055090;28;20172;-78
2022/01/23 07:44:31;;;;;;;45.00;29.13;;;5.10;99.90;;;;;;5036536;28;20184;-77
2022/01/23 07:46:56;;;;;;;45.70;27.00;;;5.10;99.90;;;;;;5054218;28;20216;-77
2022/01/23 07:49:23;;;;;;;46.50;27.77;;;5.10;99.90;;;;;;5053178;28;20242;-77
2022/01/23 07:51:48;;;;;;;49.53;28.57;;;5.10;99.90;;;;;;5035702;28;20296;-77
2022/01/23 07:54:14;;;;;;;45.13;28.17;;;5.10;99.90;;;;;;5053268;28;20655;-77
2022/01/23 07:56:42;;;;;;;41.00;26.53;;;5.20;99.90;;;;;;5053671;28;20269;-77
2022/01/23 07:59:10;;;;;;;45.97;28.23;;;5.10;99.90;;;;;;5035359;28;20195;-77
2022/01/23 08:01:39;;;;;;;43.37;26.47;;;5.10;99.90;;;;;;5053209;28;20546;-77
2022/01/23 08:04:08;;;;;;;48.53;27.80;;;5.10;99.90;;;;;;5053158;28;20223;-76
2022/01/23 08:06:41;;;;;;;43.80;26.57;;;5.20;99.90;;;;;;5035324;28;20184;-77
2022/01/23 08:09:08;;;;;;;38.43;25.47;;;5.20;99.90;;;;;;5035428;28;20238;-77
2022/01/23 08:11:33;;;;;;;44.30;27.50;;;5.20;99.90;;;;;;5035198;28;20222;-77
2022/01/23 08:13:59;;;;;;;43.37;27.27;;;5.20;99.90;;;;;;5035639;28;20634;-77
2022/01/23 08:16:24;;;;;;;48.17;28.77;;;5.20;99.90;;;;;;5053555;28;20167;-77
2022/01/23 08:18:50;;;;;;;48.43;28.03;;;5.20;99.90;;;;;;5035364;28;20219;-77
2022/01/23 08:21:16;;;;;;;47.03;27.40;;;5.20;99.90;;;;;;5053492;28;20175;-77
2022/01/23 08:23:41;;;;;;;46.50;28.30;;;5.20;99.90;;;;;;5053723;28;20199;-78
2022/01/23 08:26:08;;;;;;;49.03;29.47;;;5.20;99.90;;;;;;5036068;28;20325;-78
2022/01/23 08:28:34;;;;;;;50.87;30.30;;;5.20;99.90;;;;;;5054281;28;20199;-78
2022/01/23 08:31:00;;;;;;;49.73;30.20;;;5.20;99.90;;;;;;5054203;28;20635;-78
2022/01/23 08:33:25;;;;;;;50.50;30.27;;;5.20;99.90;;;;;;5053288;28;20251;-78
2022/01/23 08:35:53;;;;;;;52.93;32.27;;;5.30;99.90;;;;;;5053692;28;20316;-78
2022/01/23 08:38:19;;;;;;;56.20;32.17;;;5.20;99.90;;;;;;5054529;28;20191;-78
2022/01/23 08:40:48;;;;;;;52.23;31.10;;;5.30;99.90;;;;;;5054141;28;20587;-78
2022/01/23 08:43:15;;;;;;;53.80;31.90;;;5.30;99.90;;;;;;5053897;28;20175;-78
2022/01/23 08:45:41;;;;;;;53.20;32.60;;;5.30;99.90;;;;;;5035948;28;20229;-77
2022/01/23 08:48:07;;;;;;;58.57;35.53;;;5.30;99.90;;;;;;5053936;28;20172;-78
2022/01/23 08:50:33;;;;;;;61.23;35.90;;;5.30;99.90;;;;;;5053958;28;20274;-78
2022/01/23 08:52:59;;;;;;;64.47;37.37;;;5.30;99.90;;;;;;5053898;28;20179;-78
2022/01/23 08:55:24;;;;;;;57.83;35.23;;;5.30;99.90;;;;;;5036226;28;20168;-78
2022/01/23 08:57:50;;;;;;;58.10;35.10;;;5.30;99.90;;;;;;5054111;28;20172;-79
2022/01/23 09:00:18;;;;;;;54.70;34.40;;;5.30;99.90;;;;;;5036337;28;20561;-78
2022/01/23 09:02:44;;;;;;;55.87;36.17;;;5.30;99.90;;;;;;5054186;28;20164;-78
2022/01/23 09:05:09;;;;;;;60.57;34.13;;;5.30;99.90;;;;;;5054302;28;20167;-78
2022/01/23 09:07:35;;;;;;;56.63;34.70;;;5.30;99.90;;;;;;5054739;28;20671;-78
2022/01/23 09:10:03;;;;;;;58.50;34.37;;;5.30;99.90;;;;;;5054480;28;20203;-78
2022/01/23 09:15:04;;;;;;;64.27;37.10;;;5.30;99.90;;;;;;5054436;28;20152;-78
2022/01/23 09:17:30;;;;;;;59.17;36.27;;;5.40;99.90;;;;;;5057147;28;20306;-76
2022/01/23 09:19:56;;;;;;;60.67;35.83;;;5.40;99.90;;;;;;5035557;28;20677;-78
2022/01/23 09:22:21;;;;;;;53.17;33.90;;;5.40;99.90;;;;;;5035734;28;20235;-78
2022/01/23 09:24:47;;;;;;;59.77;36.13;;;5.40;99.90;;;;;;5053173;28;20168;-77
2022/01/23 09:27:19;;;;;;;56.63;35.87;;;5.40;99.90;;;;;;5035876;28;20198;-78
2022/01/23 09:29:49;;;;;;;60.43;34.53;;;5.40;99.90;;;;;;5035705;28;20322;-78
2022/01/23 09:32:16;;;;;;;65.60;37.70;;;5.50;99.90;;;;;;5053660;28;20218;-78
2022/01/23 09:34:43;;;;;;;65.77;37.27;;;5.40;99.90;;;;;;5054193;28;20199;-78
2022/01/23 09:37:11;;;;;;;61.17;36.57;;;5.40;99.90;;;;;;5036195;28;20176;-78
2022/01/23 09:39:38;;;;;;;59.00;36.27;;;5.40;99.90;;;;;;5053677;28;20199;-77
2022/01/23 09:42:07;;;;;;;72.07;39.20;;;5.50;99.90;;;;;;5054221;28;20621;-76
2022/01/23 09:44:45;;;;;;;61.17;37.50;;;5.50;99.90;;;;;;5037221;28;20657;-78
2022/01/23 09:47:16;;;;;;;67.00;38.17;;;5.40;99.90;;;;;;5057007;28;20174;-76
2022/01/23 09:49:43;;;;;;;61.10;36.70;;;5.40;99.90;;;;;;5057120;28;20192;-78
2022/01/23 09:52:10;;;;;;;62.63;37.67;;;5.50;99.90;;;;;;5039299;28;20233;-78
2022/01/23 09:54:38;;;;;;;59.03;35.80;;;5.50;99.90;;;;;;5057447;28;20665;-78
2022/01/23 09:57:05;;;;;;;61.73;37.23;;;5.50;99.90;;;;;;5057236;28;20171;-78
2022/01/23 09:59:31;;;;;;;62.47;36.83;;;5.50;99.90;;;;;;5056656;28;20283;-78
2022/01/23 10:01:58;;;;;;;65.73;37.80;;;5.40;99.90;;;;;;5057356;28;20203;-78
2022/01/23 10:04:25;;;;;;;63.23;37.47;;;5.50;99.90;;;;;;5056980;28;20163;-78
2022/01/23 10:06:52;;;;;;;65.63;38.67;;;5.50;99.90;;;;;;5057188;28;20198;-78
2022/01/23 10:09:22;;;;;;;65.97;38.07;;;5.50;99.90;;;;;;5057546;28;20195;-78
2022/01/23 10:11:49;;;;;;;65.50;36.80;;;5.50;99.90;;;;;;5057115;28;20209;-78
2022/01/23 10:14:17;;;;;;;62.57;37.67;;;5.50;99.90;;;;;;5038886;28;20258;-78
2022/01/23 10:16:44;;;;;;;68.77;39.30;;;5.50;99.90;;;;;;5056887;28;20233;-78
2022/01/23 10:19:10;;;;;;;66.10;38.37;;;5.60;99.90;;;;;;5056258;28;20211;-78
2022/01/23 10:21:38;;;;;;;64.47;37.83;;;5.60;99.90;;;;;;5056217;28;20274;-78
2022/01/23 10:24:06;;;;;;;62.30;38.67;;;5.60;99.90;;;;;;5057190;28;20218;-79
2022/01/23 10:26:52;;;;;;;61.13;36.60;;;5.60;99.90;;;;;;5057359;28;20211;-79
2022/01/23 10:29:43;;;;;;;59.87;34.83;;;5.60;99.90;;;;;;5039758;28;20203;-79
2022/01/23 10:32:22;;;;;;;64.53;37.87;;;5.60;99.90;;;;;;5058186;28;20144;-80
2022/01/23 10:34:55;;;;;;;61.60;36.67;;;5.70;99.90;;;;;;5057852;28;20151;-80
2022/01/23 10:37:29;;;;;;;59.03;36.63;;;5.70;99.90;;;;;;5058135;28;20178;-79
2022/01/23 10:39:56;;;;;;;59.93;36.70;;;5.70;99.90;;;;;;5058788;28;20195;-80
2022/01/23 10:48:00;;;;;;;58.53;36.33;;;5.70;99.90;;;;;;5058906;28;20171;-80
2022/01/23 10:50:27;;;;;;;66.00;38.70;;;5.80;99.90;;;;;;5040365;28;20195;-82
2022/01/23 10:52:58;;;;;;;55.73;35.83;;;5.80;99.90;;;;;;5041022;28;20178;-81
2022/01/23 10:55:29;;;;;;;63.60;37.10;;;5.80;99.90;;;;;;5040685;28;20193;-80
2022/01/23 10:58:00;;;;;;;58.70;38.07;;;5.80;99.90;;;;;;5041172;28;20171;-80
2022/01/23 11:00:37;;;;;;;61.30;37.00;;;5.90;99.90;;;;;;5059839;28;20233;-80
2022/01/23 11:03:20;;;;;;;58.07;36.43;;;5.90;99.90;;;;;;5042294;28;20261;-80
2022/01/23 11:05:46;;;;;;;61.23;35.27;;;5.90;99.90;;;;;;5062650;28;20152;-80
2022/01/23 11:08:37;;;;;;;57.00;35.90;;;5.90;99.90;;;;;;5058889;28;20199;-80
2022/01/23 11:11:06;;;;;;;68.20;37.87;;;5.90;99.90;;;;;;5038474;28;20274;-80
2022/01/23 11:19:24;;;;;;;54.83;35.67;;;6.00;99.90;;;;;;5059443;28;20263;-80
2022/01/23 11:21:52;;;;;;;66.47;37.57;;;6.00;99.90;;;;;;5047400;28;20231;-79
2022/01/23 11:24:18;;;;;;;64.17;36.63;;;6.00;99.90;;;;;;5075993;28;20151;-79
2022/01/23 11:26:44;;;;;;;61.73;36.87;;;6.00;99.90;;;;;;5075606;28;20206;-79
2022/01/23 11:29:12;;;;;;;62.43;38.47;;;6.00;99.90;;;;;;5041100;28;20210;-80
2022/01/23 11:31:39;;;;;;;57.53;36.97;;;6.10;99.90;;;;;;5040098;28;20221;-80
2022/01/23 11:34:07;;;;;;;61.77;38.03;;;6.10;99.90;;;;;;5057129;28;20216;-78
2022/01/23 11:36:34;;;;;;;60.83;38.10;;;6.10;99.90;;;;;;5057446;28;20195;-80
2022/01/23 11:39:08;;;;;;;62.40;36.73;;;6.10;99.90;;;;;;5056875;28;20200;-80
2022/01/23 11:55:37;;;;;;;63.87;38.00;;;6.30;99.90;;;;;;4957637;29;20166;-80
2022/01/23 11:58:04;;;;;;;65.77;37.43;;;6.30;99.90;;;;;;5017316;28;20184;-80
2022/01/23 12:00:33;;;;;;;70.07;39.97;;;6.30;99.90;;;;;;5058094;28;20176;-79
2022/01/23 12:03:08;;;;;;;63.93;39.70;;;6.30;99.90;;;;;;5039672;28;20183;-79
2022/01/23 12:05:37;;;;;;;62.30;38.60;;;6.40;99.90;;;;;;5057972;28;20585;-80
2022/01/23 12:08:35;;;;;;;69.40;39.77;;;6.30;99.90;;;;;;5038788;28;20183;-79
2022/01/23 12:11:24;;;;;;;65.73;41.10;;;6.40;99.90;;;;;;5057771;28;20247;-80
2022/01/23 12:16:53;;;;;;;71.97;40.40;;;6.50;99.90;;;;;;5057045;28;20698;-79
2022/01/23 12:19:21;;;;;;;71.17;40.70;;;6.50;99.90;;;;;;5037900;28;20215;-80
2022/01/23 12:21:49;;;;;;;73.80;40.80;;;6.50;99.90;;;;;;5056980;28;20250;-79
2022/01/23 12:24:16;;;;;;;73.23;40.90;;;6.50;99.90;;;;;;5057783;28;20172;-80
2022/01/23 12:26:43;;;;;;;69.57;41.27;;;6.50;99.90;;;;;;5057388;28;20171;-80
2022/01/23 12:29:12;;;;;;;68.43;39.43;;;6.50;99.90;;;;;;5056987;28;20316;-82
2022/01/23 12:31:38;;;;;;;68.53;40.47;;;6.50;99.90;;;;;;5057953;28;20194;-81
2022/01/23 12:34:04;;;;;;;66.57;40.17;;;6.50;99.90;;;;;;5058086;28;20544;-80
2022/01/23 12:36:32;;;;;;;65.53;38.97;;;6.60;99.90;;;;;;5057588;28;20167;-79
2022/01/23 12:39:19;;;;;;;65.20;37.57;;;6.60;99.90;;;;;;5057170;28;20192;-80
2022/01/23 12:41:47;;;;;;;64.03;37.17;;;6.60;99.90;;;;;;5056460;28;20607;-80
2022/01/23 12:44:26;;;;;;;64.97;40.23;;;6.60;99.90;;;;;;5057011;28;20176;-80
2022/01/23 12:46:54;;;;;;;65.03;38.97;;;6.60;99.90;;;;;;5057027;28;20178;-80
2022/01/23 12:49:26;;;;;;;58.73;37.50;;;6.60;99.90;;;;;;5039125;28;20235;-80
2022/01/23 12:52:07;;;;;;;63.27;38.20;;;6.60;99.90;;;;;;5059441;28;20190;-80
2022/01/23 12:54:51;;;;;;;67.57;37.60;;;6.60;99.90;;;;;;5040041;28;20168;-81
2022/01/23 12:57:41;;;;;;;65.50;37.53;;;6.60;99.90;;;;;;5047392;28;20163;-80
2022/01/23 13:00:12;;;;;;;61.03;37.00;;;6.60;99.90;;;;;;5070483;28;20190;-80
2022/01/23 13:02:44;;;;;;;61.63;37.53;;;6.60;99.90;;;;;;5057669;28;20163;-80
2022/01/23 13:05:11;;;;;;;62.30;37.43;;;6.60;99.90;;;;;;5053725;28;20189;-80
2022/01/23 13:10:24;;;;;;;67.17;38.77;;;6.70;99.90;;;;;;5053464;28;20625;-80
2022/01/23 13:30:36;;;;;;;60.97;36.63;;;6.70;99.90;;;;;;4937630;28;20327;-78
2022/01/23 13:33:09;;;;;;;59.20;35.97;;;6.70;99.90;;;;;;4954931;28;20188;-79
2022/01/23 13:35:39;;;;;;;58.53;36.40;;;6.70;99.90;;;;;;4936714;29;20364;-77
2022/01/23 13:38:10;;;;;;;54.40;34.73;;;6.70;99.90;;;;;;4936174;29;20174;-77
2022/01/23 13:40:42;;;;;;;57.93;35.80;;;6.70;99.90;;;;;;4937487;29;20693;-77
2022/01/23 13:59:52;;;;;;;61.27;35.27;;;6.90;99.90;;;;;;4919761;29;20199;-78
2022/01/23 14:02:27;;;;;;;61.63;36.13;;;6.90;99.90;;;;;;4918561;29;20300;-78
2022/01/23 14:05:11;;;;;;;56.37;35.73;;;6.90;99.90;;;;;;4925080;29;20168;-79
2022/01/23 14:07:38;;;;;;;57.43;34.00;;;6.80;99.90;;;;;;4939635;29;20709;-78
2022/01/23 14:10:18;;;;;;;52.30;34.00;;;6.90;99.90;;;;;;4936688;28;20207;-80
2022/01/23 14:12:46;;;;;;;55.60;32.27;;;6.80;99.90;;;;;;4937823;29;20164;-81
2022/01/23 14:15:23;;;;;;;55.83;33.53;;;6.90;99.90;;;;;;4939709;28;20549;-81
2022/01/23 14:17:56;;;;;;;54.10;33.53;;;6.80;99.90;;;;;;4939560;29;20232;-81
2022/01/23 14:20:23;;;;;;;51.50;32.33;;;6.80;99.90;;;;;;4936690;28;20597;-81
2022/01/23 14:22:48;;;;;;;53.17;32.03;;;6.80;99.90;;;;;;4937524;29;20184;-83
2022/01/23 14:25:20;;;;;;;49.23;31.83;;;6.80;99.90;;;;;;4936932;29;20545;-81
2022/01/23 14:27:59;;;;;;;50.87;30.47;;;6.80;99.90;;;;;;4937162;28;20262;-80
2022/01/23 14:30:27;;;;;;;54.73;31.13;;;6.80;99.90;;;;;;4936739;29;20732;-80
2022/01/23 14:32:54;;;;;;;53.50;30.50;;;6.80;99.90;;;;;;4936761;28;20172;-80
2022/01/23 14:35:28;;;;;;;46.57;28.57;;;6.80;99.90;;;;;;4936606;28;20199;-80
2022/01/23 14:37:54;;;;;;;54.77;31.07;;;6.80;99.90;;;;;;4936204;29;20177;-80
2022/01/23 14:40:21;;;;;;;46.47;29.03;;;6.80;99.90;;;;;;4936126;28;20201;-80
2022/01/23 14:43:09;;;;;;;49.30;30.13;;;6.80;99.90;;;;;;4937445;28;20187;-80
2022/01/23 14:45:49;;;;;;;45.07;29.07;;;6.80;99.90;;;;;;4936765;29;20178;-80
2022/01/23 14:48:16;;;;;;;45.47;28.23;;;6.80;99.90;;;;;;4937349;28;20195;-80
2022/01/23 14:50:50;;;;;;;45.03;28.37;;;6.80;99.90;;;;;;4936772;28;20243;-80
2022/01/23 14:53:20;;;;;;;43.93;28.83;;;6.70;99.90;;;;;;4936328;29;20175;-80
2022/01/23 14:55:50;;;;;;;50.77;29.77;;;6.70;99.90;;;;;;4936677;28;20179;-80
2022/01/23 14:58:20;;;;;;;48.67;29.77;;;6.70;99.90;;;;;;4939199;29;20267;-80
2022/01/23 15:00:48;;;;;;;50.50;32.07;;;6.70;99.90;;;;;;4945116;28;20195;-79
2022/01/23 15:03:13;;;;;;;48.17;29.63;;;6.70;99.90;;;;;;4947098;28;20180;-80
2022/01/23 15:05:40;;;;;;;49.10;30.77;;;6.70;99.90;;;;;;4943567;29;20187;-80
2022/01/23 15:08:08;;;;;;;47.87;30.33;;;6.70;99.90;;;;;;4938039;28;20654;-80
2022/01/23 15:10:36;;;;;;;47.70;29.33;;;6.70;99.90;;;;;;4935905;28;20216;-80
2022/01/23 15:13:02;;;;;;;47.43;30.93;;;6.70;99.90;;;;;;4935792;28;20600;-78
2022/01/23 15:15:28;;;;;;;53.70;30.63;;;6.60;99.90;;;;;;4935919;28;20182;-80
2022/01/23 15:17:54;;;;;;;49.93;30.97;;;6.60;99.90;;;;;;4936453;28;20180;-79
2022/01/23 15:20:19;;;;;;;54.70;32.03;;;6.70;99.90;;;;;;4935896;28;20592;-81
2022/01/23 15:22:46;;;;;;;50.00;30.13;;;6.60;99.90;;;;;;4938370;28;20206;-80
2022/01/23 15:25:13;;;;;;;47.40;30.50;;;6.60;99.90;;;;;;4941337;29;20251;-80
2022/01/23 15:27:40;;;;;;;49.07;30.33;;;6.60;99.90;;;;;;4941763;29;20638;-80
2022/01/23 15:30:08;;;;;;;54.00;32.33;;;6.60;99.90;;;;;;4936887;28;20317;-80
2022/01/23 15:32:34;;;;;;;49.13;31.47;;;6.60;99.90;;;;;;4938916;28;20182;-80
2022/01/23 15:34:59;;;;;;;51.93;32.27;;;6.60;99.90;;;;;;4941862;28;20180;-80
2022/01/23 15:37:25;;;;;;;49.50;31.23;;;6.60;99.90;;;;;;4953062;29;20234;-79
2022/01/23 15:39:51;;;;;;;52.20;32.63;;;6.60;99.90;;;;;;4952595;28;20207;-80
2022/01/23 15:42:17;;;;;;;51.10;31.40;;;6.50;99.90;;;;;;4945086;28;20180;-80
2022/01/23 15:44:43;;;;;;;54.47;31.33;;;6.50;99.90;;;;;;4935760;28;20184;-80
2022/01/23 15:47:09;;;;;;;49.33;30.17;;;6.60;99.90;;;;;;4934584;28;20239;-80
2022/01/23 15:49:35;;;;;;;50.53;30.53;;;6.50;99.90;;;;;;4934509;28;20223;-80
2022/01/23 15:52:00;;;;;;;44.87;29.60;;;6.50;99.90;;;;;;4936021;28;20172;-80
2022/01/23 15:54:26;;;;;;;48.13;30.20;;;6.50;99.90;;;;;;4934488;28;20183;-80
2022/01/23 15:56:54;;;;;;;50.13;31.07;;;6.50;99.90;;;;;;4934901;28;20645;-80
2022/01/23 15:59:20;;;;;;;46.40;29.53;;;6.50;99.90;;;;;;4936597;28;20723;-80
2022/01/23 16:01:49;;;;;;;49.53;28.63;;;6.50;99.90;;;;;;4934890;28;20187;-81
2022/01/23 16:04:18;;;;;;;45.83;28.70;;;6.40;99.90;;;;;;4935368;28;20215;-79
2022/01/23 16:06:44;;;;;;;43.80;26.67;;;6.50;99.90;;;;;;4934786;28;20186;-79
2022/01/23 16:09:10;;;;;;;42.37;26.03;;;6.50;99.90;;;;;;4935200;28;20220;-79